Time;durP1;ratioP1;P1;durP2;ratioP2;P2;SDS_P1;SDS_P2;PMS_P1;PMS_P2;Temp;Humidity;BMP_temperature;BMP_pressure;BME280_temperature;BME280_humidity;BME280_pressure;Samples;Min_cycle;Max_cycle;Signal;HPM_P1;HPM_P2
2022/07/25 00:01:44;;;;;;;;;;;20.90;97.20;;;;;;5044468;28;19948;-87
2022/07/25 00:04:14;;;;;;;;;;;20.70;97.40;;;;;;5079967;28;19928;-87
2022/07/25 00:06:43;;;;;;;;;;;20.70;97.30;;;;;;5080485;28;19931;-88
2022/07/25 00:09:10;;;;;;;;;;;20.80;97.50;;;;;;5081696;28;19924;-87
2022/07/25 00:11:38;;;;;;;;;;;20.70;97.50;;;;;;5080642;28;19935;-88
2022/07/25 00:14:07;;;;;;;;;;;20.70;97.40;;;;;;5067093;28;19928;-87
2022/07/25 00:16:38;;;;;;;;;;;20.60;97.50;;;;;;5038886;28;19925;-87
2022/07/25 00:19:06;;;;;;;;;;;20.60;97.90;;;;;;5078088;28;20360;-89
2022/07/25 00:21:34;;;;;;;;;;;20.30;97.90;;;;;;5062067;28;19925;-88
2022/07/25 00:24:02;;;;;;;;;;;20.60;98.20;;;;;;5074224;28;19932;-86
2022/07/25 00:26:30;;;;;;;;;;;20.70;97.80;;;;;;5079299;28;20093;-87
2022/07/25 00:29:04;;;;;;;;;;;20.70;98.10;;;;;;5043152;28;19928;-87
2022/07/25 00:31:31;;;;;;;;;;;20.70;98.10;;;;;;5072737;28;20296;-88
2022/07/25 00:33:59;;;;;;;;;;;20.50;98.00;;;;;;5070571;28;20431;-87
2022/07/25 00:36:26;;;;;;;;;;;20.70;98.30;;;;;;5078339;28;19932;-87
2022/07/25 00:38:54;;;;;;;;;;;20.70;98.00;;;;;;5042675;28;20263;-88
2022/07/25 00:41:22;;;;;;;;;;;20.70;98.00;;;;;;5058879;28;19925;-87
2022/07/25 00:43:50;;;;;;;;;;;20.80;98.20;;;;;;5066829;28;19928;-88
2022/07/25 00:46:17;;;;;;;;;;;20.80;98.00;;;;;;5065294;28;19925;-86
2022/07/25 00:48:47;;;;;;;;;;;20.80;98.10;;;;;;5078566;28;19924;-88
2022/07/25 00:51:15;;;;;;;;;;;20.80;98.30;;;;;;5061448;28;19928;-87
2022/07/25 00:53:43;;;;;;;;;;;20.30;98.00;;;;;;5079129;28;19928;-89
2022/07/25 00:56:11;;;;;;;;;;;20.50;98.10;;;;;;5077261;28;19924;-87
2022/07/25 00:58:39;;;;;;;;;;;20.80;98.10;;;;;;5071893;28;19939;-88
2022/07/25 01:01:08;;;;;;;;;;;20.80;98.30;;;;;;5073239;28;20045;-87
2022/07/25 01:03:36;;;;;;;;;;;20.80;98.10;;;;;;5075989;28;19932;-87
2022/07/25 01:06:03;;;;;;;;;;;19.80;98.00;;;;;;5079047;28;19925;-87
2022/07/25 01:08:33;;;;;;;;;;;21.00;98.30;;;;;;5065858;28;20511;-89
2022/07/25 01:11:02;;;;;;;;;;;20.60;98.30;;;;;;5070227;28;19925;-86
2022/07/25 01:13:33;;;;;;;;;;;20.60;98.60;;;;;;5068450;28;19928;-87
2022/07/25 01:16:01;;;;;;;;;;;20.50;98.60;;;;;;5066214;28;20337;-87
2022/07/25 01:18:28;;;;;;;;;;;20.70;98.80;;;;;;5077968;28;19924;-87
2022/07/25 01:20:56;;;;;;;;;;;20.40;98.80;;;;;;5055871;28;19936;-87
2022/07/25 01:23:24;;;;;;;;;;;20.70;98.90;;;;;;5076346;28;19929;-88
2022/07/25 01:25:51;;;;;;;;;;;20.30;99.10;;;;;;5078196;28;19935;-88
2022/07/25 01:28:19;;;;;;;;;;;20.30;99.10;;;;;;5077197;28;19925;-89
2022/07/25 01:30:47;;;;;;;;;;;20.30;98.80;;;;;;5047128;28;19925;-87
2022/07/25 01:33:18;;;;;;;;;;;19.80;98.90;;;;;;5064565;28;19955;-88
2022/07/25 01:35:47;;;;;;;;;;;19.30;98.60;;;;;;5077217;28;19935;-87
2022/07/25 01:38:15;;;;;;;;;;;20.20;98.90;;;;;;5062633;28;19924;-87
2022/07/25 01:40:43;;;;;;;;;;;20.30;99.00;;;;;;5064748;28;19929;-87
2022/07/25 01:43:11;;;;;;;;;;;20.20;98.90;;;;;;5051881;28;19928;-86
2022/07/25 01:45:40;;;;;;;;;;;20.40;99.00;;;;;;5067815;28;19939;-86
2022/07/25 01:48:08;;;;;;;;;;;20.10;98.80;;;;;;5077005;28;19935;-86
2022/07/25 01:50:36;;;;;;;;;;;20.10;98.90;;;;;;5077789;28;19943;-87
2022/07/25 01:53:05;;;;;;;;;;;20.10;98.90;;;;;;5075801;28;19940;-86
2022/07/25 01:55:33;;;;;;;;;;;20.10;98.80;;;;;;5065668;28;19931;-87
2022/07/25 01:58:01;;;;;;;;;;;20.10;98.60;;;;;;5053205;28;19925;-87
2022/07/25 02:00:28;;;;;;;;;;;19.80;98.40;;;;;;5068125;28;19932;-87
2022/07/25 02:06:02;;;;;;;;;;;20.00;98.20;;;;;;5048441;28;19940;-86
2022/07/25 02:08:30;;;;;;;;;;;20.00;98.00;;;;;;5081916;28;20045;-87
2022/07/25 02:10:57;;;;;;;;;;;20.00;97.90;;;;;;5061708;28;19924;-86
2022/07/25 02:13:25;;;;;;;;;;;19.90;97.80;;;;;;5076078;28;19928;-86
2022/07/25 02:15:53;;;;;;;;;;;20.00;97.80;;;;;;5076540;28;20335;-87
2022/07/25 02:18:20;;;;;;;;;;;19.90;97.80;;;;;;5076225;28;19928;-87
2022/07/25 02:20:48;;;;;;;;;;;19.90;97.80;;;;;;5059905;28;19924;-86
2022/07/25 02:23:16;;;;;;;;;;;19.70;97.70;;;;;;5078267;28;19939;-88
2022/07/25 02:25:45;;;;;;;;;;;19.90;97.70;;;;;;5069743;28;19932;-85
2022/07/25 02:28:12;;;;;;;;;;;19.90;97.90;;;;;;5062119;28;19928;-88
2022/07/25 02:30:40;;;;;;;;;;;19.20;97.80;;;;;;5078763;28;19929;-87
2022/07/25 02:33:07;;;;;;;;;;;19.90;98.20;;;;;;5066715;28;20284;-86
2022/07/25 02:35:35;;;;;;;;;;;19.90;98.10;;;;;;5078087;28;20316;-88
2022/07/25 02:38:03;;;;;;;;;;;19.80;98.00;;;;;;5077915;28;19931;-86
2022/07/25 02:40:33;;;;;;;;;;;19.80;98.30;;;;;;5076940;28;20383;-87
2022/07/25 02:43:01;;;;;;;;;;;19.70;98.20;;;;;;5076161;28;19935;-86
2022/07/25 02:45:30;;;;;;;;;;;19.70;98.10;;;;;;5067450;28;20682;-87
2022/07/25 02:48:00;;;;;;;;;;;20.00;98.20;;;;;;5072636;28;19933;-87
2022/07/25 02:50:32;;;;;;;;;;;19.60;98.40;;;;;;5077551;28;19925;-86
2022/07/25 02:53:03;;;;;;;;;;;19.50;98.20;;;;;;5077739;28;19939;-86
2022/07/25 02:55:33;;;;;;;;;;;19.50;98.40;;;;;;5076395;28;20562;-88
2022/07/25 02:58:01;;;;;;;;;;;19.40;98.50;;;;;;5075489;28;19935;-87
2022/07/25 03:00:29;;;;;;;;;;;19.50;98.40;;;;;;5039763;28;19925;-86
2022/07/25 03:02:57;;;;;;;;;;;19.40;98.70;;;;;;5070660;28;19929;-86
2022/07/25 03:05:27;;;;;;;;;;;19.40;98.60;;;;;;5056949;28;19929;-87
2022/07/25 03:07:55;;;;;;;;;;;19.40;98.70;;;;;;5063427;28;19929;-87
2022/07/25 03:10:25;;;;;;;;;;;19.40;98.60;;;;;;5059352;28;19924;-87
2022/07/25 03:12:56;;;;;;;;;;;19.30;98.70;;;;;;5073466;28;19932;-86
2022/07/25 03:15:26;;;;;;;;;;;19.60;98.90;;;;;;5076090;28;19947;-86
2022/07/25 03:17:57;;;;;;;;;;;18.20;98.40;;;;;;5062301;28;19925;-86
2022/07/25 03:20:25;;;;;;;;;;;19.40;98.70;;;;;;5071745;28;19924;-87
2022/07/25 03:22:52;;;;;;;;;;;19.40;98.70;;;;;;5073839;28;20296;-86
2022/07/25 03:25:22;;;;;;;;;;;19.80;98.80;;;;;;5068843;28;19924;-87
2022/07/25 03:27:51;;;;;;;;;;;19.30;98.60;;;;;;5077229;28;19932;-86
2022/07/25 03:30:18;;;;;;;;;;;19.30;98.70;;;;;;5075395;28;19928;-88
2022/07/25 03:32:46;;;;;;;;;;;19.30;98.90;;;;;;5077235;28;19932;-88
2022/07/25 03:35:21;;;;;;;;;;;19.30;98.80;;;;;;5060448;28;19932;-87
2022/07/25 03:37:49;;;;;;;;;;;19.30;98.90;;;;;;5075909;28;19935;-86
2022/07/25 03:40:26;;;;;;;;;;;19.40;99.00;;;;;;5058304;28;19925;-86
2022/07/25 03:43:02;;;;;;;;;;;19.30;98.90;;;;;;5064521;28;20371;-87
2022/07/25 03:45:31;;;;;;;;;;;19.20;98.80;;;;;;5078204;28;19931;-87
2022/07/25 03:47:59;;;;;;;;;;;19.50;98.90;;;;;;5080303;28;20380;-87
2022/07/25 03:50:30;;;;;;;;;;;19.20;99.00;;;;;;5055511;28;19924;-86
2022/07/25 03:53:02;;;;;;;;;;;19.30;99.10;;;;;;5063388;28;20072;-88
2022/07/25 03:55:30;;;;;;;;;;;19.50;99.80;;;;;;5076162;28;19953;-86
2022/07/25 03:58:15;;;;;;;;;;;19.30;99.10;;;;;;5048863;28;19932;-86
2022/07/25 04:00:42;;;;;;;;;;;19.20;98.90;;;;;;4680168;28;10000473;-87
2022/07/25 04:03:14;;;;;;;;;;;19.10;98.90;;;;;;5056047;28;19928;-87
2022/07/25 04:05:49;;;;;;;;;;;19.20;98.90;;;;;;5027369;28;19925;-87
2022/07/25 04:08:17;;;;;;;;;;;19.20;98.90;;;;;;5052748;28;19925;-86
2022/07/25 04:10:50;;;;;;;;;;;19.30;98.90;;;;;;5038469;28;19924;-87
2022/07/25 04:13:26;;;;;;;;;;;19.30;98.90;;;;;;5058803;28;19929;-87
2022/07/25 04:15:54;;;;;;;;;;;19.20;98.90;;;;;;5040309;28;20042;-87
2022/07/25 04:18:24;;;;;;;;;;;19.30;98.80;;;;;;5040556;28;19924;-86
2022/07/25 04:21:10;;;;;;;;;;;19.30;98.80;;;;;;5045590;28;19929;-86
2022/07/25 04:23:39;;;;;;;;;;;19.30;98.70;;;;;;5032685;28;20011;-86
2022/07/25 04:26:10;;;;;;;;;;;19.40;98.60;;;;;;5035788;28;20009;-87
2022/07/25 04:28:47;;;;;;;;;;;19.20;98.60;;;;;;5039961;28;19944;-87
2022/07/25 04:31:16;;;;;;;;;;;19.30;98.70;;;;;;5045937;28;20031;-87
2022/07/25 04:33:47;;;;;;;;;;;18.60;98.70;;;;;;5039642;28;19925;-88
2022/07/25 04:36:20;;;;;;;;;;;19.20;99.40;;;;;;5066569;28;19936;-87
2022/07/25 04:38:47;;;;;;;;;;;19.20;98.70;;;;;;5046135;28;19925;-87
2022/07/25 04:41:19;;;;;;;;;;;19.70;99.10;;;;;;5061371;28;19932;-87
2022/07/25 04:43:50;;;;;;;;;;;19.10;98.90;;;;;;5054558;28;19931;-87
2022/07/25 04:46:23;;;;;;;;;;;19.10;99.00;;;;;;5028312;28;19925;-86
2022/07/25 04:48:53;;;;;;;;;;;19.10;99.20;;;;;;5064774;28;19925;-86
2022/07/25 04:51:23;;;;;;;;;;;19.00;99.00;;;;;;5030166;28;19925;-88
2022/07/25 04:53:51;;;;;;;;;;;19.00;99.20;;;;;;5063686;28;19932;-86
2022/07/25 04:56:21;;;;;;;;;;;18.90;99.30;;;;;;5049520;28;19935;-87
2022/07/25 04:58:48;;;;;;;;;;;19.00;99.30;;;;;;5079921;28;19928;-87
2022/07/25 05:01:17;;;;;;;;;;;18.90;99.30;;;;;;5084100;28;20032;-88
2022/07/25 05:03:45;;;;;;;;;;;18.90;99.40;;;;;;5101066;28;19924;-86
2022/07/25 05:06:48;;;;;;;;;;;18.90;99.50;;;;;;5076550;28;19924;-87
2022/07/25 05:09:35;;;;;;;;;;;18.90;99.60;;;;;;5071347;28;19928;-87
2022/07/25 05:12:05;;;;;;;;;;;18.80;99.60;;;;;;5082451;28;19924;-89
2022/07/25 05:14:35;;;;;;;;;;;18.80;99.70;;;;;;5084047;28;19931;-87
2022/07/25 05:17:04;;;;;;;;;;;18.40;99.50;;;;;;5064344;28;19946;-86
2022/07/25 05:19:32;;;;;;;;;;;18.90;99.70;;;;;;5078816;28;20398;-88
2022/07/25 05:22:01;;;;;;;;;;;18.70;99.60;;;;;;5077079;28;19940;-86
2022/07/25 05:24:32;;;;;;;;;;;18.80;99.70;;;;;;5069209;28;19928;-86
2022/07/25 05:27:03;;;;;;;;;;;18.80;99.60;;;;;;5070096;28;19935;-88
2022/07/25 05:29:31;;;;;;;;;;;19.40;99.50;;;;;;5079572;28;20330;-87
2022/07/25 05:32:04;;;;;;;;;;;18.80;99.30;;;;;;5072089;28;20319;-87
2022/07/25 05:34:32;;;;;;;;;;;18.80;99.20;;;;;;5077677;28;19925;-88
2022/07/25 05:37:03;;;;;;;;;;;18.80;99.10;;;;;;5064601;28;19925;-88
2022/07/25 05:39:31;;;;;;;;;;;18.90;98.90;;;;;;5073226;28;19936;-87
2022/07/25 05:41:59;;;;;;;;;;;18.90;98.70;;;;;;5065047;28;19929;-87
2022/07/25 05:44:27;;;;;;;;;;;18.90;98.80;;;;;;5069224;28;19924;-87
2022/07/25 05:47:00;;;;;;;;;;;18.90;98.50;;;;;;5075967;28;20162;-87
2022/07/25 05:49:30;;;;;;;;;;;17.80;98.10;;;;;;5080079;28;19931;-87
2022/07/25 05:51:58;;;;;;;;;;;19.00;98.30;;;;;;5075172;28;19991;-88
2022/07/25 05:54:26;;;;;;;;;;;19.40;98.40;;;;;;5070677;28;20406;-88
2022/07/25 05:56:54;;;;;;;;;;;19.30;98.20;;;;;;5086143;28;20010;-88
2022/07/25 05:59:22;;;;;;;;;;;19.00;97.80;;;;;;5070069;28;19928;-88
2022/07/25 06:01:52;;;;;;;;;;;19.20;97.70;;;;;;5073332;28;19924;-87
2022/07/25 06:04:20;;;;;;;;;;;19.30;97.30;;;;;;5065781;28;19935;-86
2022/07/25 06:06:57;;;;;;;;;;;18.90;96.90;;;;;;5083715;28;19947;-87
2022/07/25 06:09:29;;;;;;;;;;;19.40;96.80;;;;;;5064026;28;19931;-86
2022/07/25 06:11:59;;;;;;;;;;;19.30;96.80;;;;;;5080161;28;19934;-88
2022/07/25 06:14:36;;;;;;;;;;;19.30;96.90;;;;;;5051402;28;19931;-87
2022/07/25 06:17:16;;;;;;;;;;;21.60;97.00;;;;;;5061881;28;19935;-88
2022/07/25 06:19:45;;;;;;;;;;;19.30;96.30;;;;;;5067308;28;19943;-87
2022/07/25 06:22:18;;;;;;;;;;;19.30;96.20;;;;;;5082394;28;19960;-87
2022/07/25 06:25:02;;;;;;;;;;;19.40;96.00;;;;;;5080259;28;19912;-86
2022/07/25 06:27:45;;;;;;;;;;;19.70;95.70;;;;;;5066769;28;19925;-86
2022/07/25 06:30:15;;;;;;;;;;;19.60;95.60;;;;;;5077750;28;19929;-86
2022/07/25 06:32:48;;;;;;;;;;;19.80;95.00;;;;;;5077017;28;19928;-86
2022/07/25 06:35:17;;;;;;;;;;;19.60;94.60;;;;;;5081831;28;19943;-86
2022/07/25 06:37:46;;;;;;;;;;;19.70;94.40;;;;;;5085098;28;19933;-85
2022/07/25 06:40:21;;;;;;;;;;;19.60;94.40;;;;;;5083011;28;19936;-85
2022/07/25 06:43:11;;;;;;;;;;;19.70;94.20;;;;;;5071329;28;19935;-86
2022/07/25 06:45:47;;;;;;;;;;;19.80;94.00;;;;;;5043941;28;19932;-86
2022/07/25 06:48:23;;;;;;;;;;;19.80;94.00;;;;;;5084026;28;20493;-86
2022/07/25 06:50:53;;;;;;;;;;;19.90;93.90;;;;;;5079193;28;19936;-86
2022/07/25 06:53:27;;;;;;;;;;;19.90;93.40;;;;;;5066350;28;19924;-86
2022/07/25 06:55:55;;;;;;;;;;;19.90;93.30;;;;;;5033136;28;19925;-86
2022/07/25 06:58:25;;;;;;;;;;;18.60;93.40;;;;;;5070829;28;19932;-86
2022/07/25 07:00:59;;;;;;;;;;;20.10;93.40;;;;;;5084011;28;19935;-86
2022/07/25 07:03:29;;;;;;;;;;;20.10;93.30;;;;;;5055511;28;19925;-86
2022/07/25 07:05:57;;;;;;;;;;;20.10;93.40;;;;;;5080741;28;20082;-86
2022/07/25 07:08:27;;;;;;;;;;;20.00;93.30;;;;;;5066583;28;19925;-86
2022/07/25 07:10:56;;;;;;;;;;;20.20;93.50;;;;;;5084133;28;19924;-86
2022/07/25 07:13:48;;;;;;;;;;;20.20;93.20;;;;;;5068554;28;19932;-86
2022/07/25 07:16:19;;;;;;;;;;;20.00;93.40;;;;;;5054517;28;19931;-86
2022/07/25 07:18:50;;;;;;;;;;;20.10;93.40;;;;;;5092213;28;19928;-86
2022/07/25 07:21:24;;;;;;;;;;;20.10;93.50;;;;;;5064080;28;19924;-86
2022/07/25 07:23:52;;;;;;;;;;;19.80;93.40;;;;;;5085772;28;19931;-85
2022/07/25 07:26:21;;;;;;;;;;;20.20;93.40;;;;;;5063576;28;19928;-85
2022/07/25 07:28:53;;;;;;;;;;;20.50;93.50;;;;;;5065543;28;19925;-86
2022/07/25 07:31:23;;;;;;;;;;;20.40;93.20;;;;;;5064308;28;19925;-87
2022/07/25 07:33:53;;;;;;;;;;;20.50;92.90;;;;;;5083929;28;19929;-87
2022/07/25 07:36:21;;;;;;;;;;;20.50;92.90;;;;;;5081141;28;19935;-87
2022/07/25 07:38:51;;;;;;;;;;;20.50;92.80;;;;;;5073634;28;19932;-86
2022/07/25 07:41:39;;;;;;;;;;;20.60;92.80;;;;;;5065952;22;19934;-82
2022/07/25 07:44:12;;;;;;;;;;;20.50;92.60;;;;;;5072699;28;19925;-82
2022/07/25 07:46:41;;;;;;;;;;;20.60;92.60;;;;;;5083401;28;19925;-80
2022/07/25 07:49:11;;;;;;;;;;;20.90;92.50;;;;;;5056401;28;19929;-83
2022/07/25 07:51:40;;;;;;;;;;;20.60;92.20;;;;;;5029115;28;19932;-82
2022/07/25 07:57:03;;;;;;;;;;;20.40;92.00;;;;;;5060405;28;19925;-82
2022/07/25 07:59:33;;;;;;;;;;;20.70;92.40;;;;;;5074319;28;19913;-82
2022/07/25 08:02:03;;;;;;;;;;;21.10;92.00;;;;;;5058441;28;19930;-83
2022/07/25 08:04:33;;;;;;;;;;;21.00;92.10;;;;;;5059401;28;19929;-80
2022/07/25 08:07:01;;;;;;;;;;;21.10;91.60;;;;;;5076835;28;19935;-82
2022/07/25 08:09:29;;;;;;;;;;;21.20;91.90;;;;;;5059314;28;19942;-82
2022/07/25 08:11:59;;;;;;;;;;;21.30;91.20;;;;;;5068677;28;19928;-82
2022/07/25 08:14:29;;;;;;;;;;;21.50;91.00;;;;;;5063715;28;19932;-82
2022/07/25 08:16:58;;;;;;;;;;;21.30;90.70;;;;;;5067595;28;20688;-83
2022/07/25 08:19:28;;;;;;;;;;;21.50;90.50;;;;;;5046493;28;19925;-83
2022/07/25 08:22:05;;;;;;;;;;;21.40;90.60;;;;;;5044841;28;19929;-80
2022/07/25 08:24:35;;;;;;;;;;;21.30;90.50;;;;;;5053805;28;19935;-83
2022/07/25 08:27:04;;;;;;;;;;;21.20;90.50;;;;;;5017648;28;19932;-82
2022/07/25 08:29:32;;;;;;;;;;;21.20;91.00;;;;;;5069787;28;19929;-83
2022/07/25 08:32:06;;;;;;;;;;;21.20;90.40;;;;;;5049929;28;19935;-84
2022/07/25 08:34:36;;;;;;;;;;;21.30;90.20;;;;;;5083086;28;19930;-84
2022/07/25 08:37:08;;;;;;;;;;;21.10;90.30;;;;;;5039544;28;19916;-83
2022/07/25 08:39:48;;;;;;;;;;;21.00;90.50;;;;;;5085128;28;19925;-83
2022/07/25 08:42:18;;;;;;;;;;;21.00;90.60;;;;;;5061434;28;19944;-83
2022/07/25 08:44:49;;;;;;;;;;;21.80;90.70;;;;;;5038239;28;19937;-82
2022/07/25 08:47:21;;;;;;;;;;;21.30;90.00;;;;;;5047778;28;19931;-81
2022/07/25 08:49:52;;;;;;;;;;;21.50;89.50;;;;;;5043256;28;19925;-81
2022/07/25 08:52:22;;;;;;;;;;;21.70;89.30;;;;;;5048159;28;19929;-83
2022/07/25 08:54:53;;;;;;;;;;;21.40;88.90;;;;;;5063624;28;19925;-82
2022/07/25 08:57:23;;;;;;;;;;;22.40;90.10;;;;;;5032447;28;19929;-81
2022/07/25 08:59:53;;;;;;;;;;;21.20;89.00;;;;;;5045047;28;19935;-82
2022/07/25 09:02:21;;;;;;;;;;;21.10;89.30;;;;;;5046777;28;20284;-84
2022/07/25 09:05:00;;;;;;;;;;;21.10;90.40;;;;;;5035163;28;19935;-83
2022/07/25 09:07:33;;;;;;;;;;;21.10;90.20;;;;;;5043944;28;19931;-83
2022/07/25 09:10:14;;;;;;;;;;;21.00;90.10;;;;;;5047192;28;19933;-83
2022/07/25 09:12:51;;;;;;;;;;;21.10;90.10;;;;;;5020324;28;19928;-83
2022/07/25 09:15:28;;;;;;;;;;;20.60;90.00;;;;;;5038221;28;19929;-81
2022/07/25 09:18:03;;;;;;;;;;;20.90;90.00;;;;;;5037054;28;19940;-82
2022/07/25 09:20:52;;;;;;;;;;;21.20;89.50;;;;;;5017951;28;19933;-84
2022/07/25 09:23:32;;;;;;;;;;;21.30;89.50;;;;;;5035741;28;19929;-83
2022/07/25 09:26:13;;;;;;;;;;;21.10;89.90;;;;;;5030326;28;19936;-82
2022/07/25 09:28:48;;;;;;;;;;;21.20;90.20;;;;;;5044742;28;19943;-83
2022/07/25 09:31:19;;;;;;;;;;;20.90;90.30;;;;;;5030868;28;19925;-84
2022/07/25 09:33:50;;;;;;;;;;;20.90;90.50;;;;;;5028876;28;19936;-82
2022/07/25 09:36:22;;;;;;;;;;;20.80;90.70;;;;;;5059191;28;19936;-82
2022/07/25 09:38:54;;;;;;;;;;;20.80;90.70;;;;;;5042497;28;19925;-81
2022/07/25 09:41:33;;;;;;;;;;;21.20;90.70;;;;;;5045631;28;20596;-86
2022/07/25 09:44:03;;;;;;;;;;;21.20;90.70;;;;;;5063364;28;19929;-82
2022/07/25 09:46:33;;;;;;;;;;;21.10;90.20;;;;;;5064503;28;19935;-82
2022/07/25 09:49:02;;;;;;;;;;;22.90;91.10;;;;;;5031063;28;19925;-82
2022/07/25 09:51:33;;;;;;;;;;;21.20;89.60;;;;;;5019737;28;19940;-82
2022/07/25 09:54:02;;;;;;;;;;;20.90;90.10;;;;;;5060043;28;19933;-82
2022/07/25 09:56:34;;;;;;;;;;;21.50;88.70;;;;;;5065118;28;20293;-81
2022/07/25 09:59:05;;;;;;;;;;;21.90;88.90;;;;;;5064451;28;19925;-82
2022/07/25 10:01:48;;;;;;;;;;;21.90;87.50;;;;;;5046469;28;19925;-82
2022/07/25 10:04:23;;;;;;;;;;;21.90;86.60;;;;;;5012915;28;19932;-81
2022/07/25 10:07:08;;;;;;;;;;;21.90;87.10;;;;;;5061940;28;19939;-81
2022/07/25 10:09:44;;;;;;;;;;;21.80;87.10;;;;;;5032386;28;19975;-82
2022/07/25 10:12:13;;;;;;;;;;;20.90;86.70;;;;;;5012944;28;19953;-82
2022/07/25 10:14:41;;;;;;;;;;;21.80;87.70;;;;;;5048473;28;19925;-82
2022/07/25 10:17:19;;;;;;;;;;;21.70;88.10;;;;;;5038488;28;19932;-83
2022/07/25 10:19:48;;;;;;;;;;;21.80;87.80;;;;;;5046793;28;19913;-83
2022/07/25 10:22:37;;;;;;;;;;;21.90;87.30;;;;;;5045808;28;19932;-82
2022/07/25 10:25:23;;;;;;;;;;;21.80;87.10;;;;;;5049585;28;19935;-82
2022/07/25 10:27:59;;;;;;;;;;;22.00;87.20;;;;;;5033662;28;19925;-83
2022/07/25 10:30:38;;;;;;;;;;;21.40;87.10;;;;;;5048846;28;19924;-81
2022/07/25 10:33:16;;;;;;;;;;;22.20;87.20;;;;;;5063233;28;19933;-83
2022/07/25 10:35:46;;;;;;;;;;;22.10;86.50;;;;;;5048651;28;20344;-82
2022/07/25 10:38:22;;;;;;;;;;;22.20;86.20;;;;;;5047405;28;19929;-83
2022/07/25 10:40:55;;;;;;;;;;;22.40;86.50;;;;;;5049272;28;19924;-83
2022/07/25 10:43:26;;;;;;;;;;;22.70;85.20;;;;;;5033557;28;19929;-83
2022/07/25 10:45:57;;;;;;;;;;;22.70;84.90;;;;;;5032394;28;19938;-82
2022/07/25 10:48:26;;;;;;;;;;;22.90;84.20;;;;;;5048118;28;20324;-82
2022/07/25 10:50:59;;;;;;;;;;;23.00;84.10;;;;;;5013542;28;19925;-80
2022/07/25 10:53:32;;;;;;;;;;;23.20;83.80;;;;;;5045486;28;19932;-81
2022/07/25 10:56:19;;;;;;;;;;;23.30;84.40;;;;;;5047576;28;19943;-81
2022/07/25 10:58:55;;;;;;;;;;;23.50;82.60;;;;;;5046460;28;19935;-81
2022/07/25 11:01:27;;;;;;;;;;;24.30;81.60;;;;;;5041614;28;20401;-81
2022/07/25 11:04:02;;;;;;;;;;;23.40;81.70;;;;;;5045475;28;19929;-81
2022/07/25 11:06:29;;;;;;;;;;;23.60;81.80;;;;;;5044953;28;19933;-81
2022/07/25 11:09:00;;;;;;;;;;;23.50;82.20;;;;;;5049438;28;19933;-81
2022/07/25 11:11:34;;;;;;;;;;;23.30;82.00;;;;;;5062553;28;19933;-81
2022/07/25 11:14:05;;;;;;;;;;;23.20;81.50;;;;;;5062079;28;19925;-83
2022/07/25 11:16:34;;;;;;;;;;;23.30;81.90;;;;;;5049084;28;19935;-82
2022/07/25 11:19:14;;;;;;;;;;;23.70;82.70;;;;;;5048521;28;19929;-82
2022/07/25 11:21:43;;;;;;;;;;;23.50;81.90;;;;;;5046371;28;19936;-82
2022/07/25 11:24:14;;;;;;;;;;;22.90;82.20;;;;;;5045737;28;19925;-82
2022/07/25 11:26:47;;;;;;;;;;;23.10;81.60;;;;;;5043387;28;19939;-81
2022/07/25 11:29:19;;;;;;;;;;;23.20;81.60;;;;;;5064068;28;19928;-83
2022/07/25 11:31:53;;;;;;;;;;;22.90;81.80;;;;;;5066282;28;19932;-81
2022/07/25 11:34:30;;;;;;;;;;;22.80;82.20;;;;;;5052079;28;19925;-79
2022/07/25 11:37:01;;;;;;;;;;;22.80;82.50;;;;;;5065797;28;20165;-81
2022/07/25 11:39:36;;;;;;;;;;;22.70;83.80;;;;;;5065453;28;19943;-82
2022/07/25 11:42:11;;;;;;;;;;;22.50;84.10;;;;;;5044187;28;19967;-81
2022/07/25 11:44:49;;;;;;;;;;;22.40;83.80;;;;;;5048605;28;19936;-82
2022/07/25 11:47:32;;;;;;;;;;;22.20;84.80;;;;;;5045486;28;19947;-83
2022/07/25 11:50:04;;;;;;;;;;;21.90;85.90;;;;;;5046892;28;19929;-81
2022/07/25 11:52:35;;;;;;;;;;;22.00;87.30;;;;;;5046645;28;19920;-81
2022/07/25 11:55:08;;;;;;;;;;;21.90;88.30;;;;;;5047183;28;19961;-79
2022/07/25 11:57:37;;;;;;;;;;;22.10;87.90;;;;;;5045214;28;19929;-82
2022/07/25 12:00:14;;;;;;;;;;;22.20;87.70;;;;;;5041605;28;19951;-81
2022/07/25 12:02:42;;;;;;;;;;;22.80;87.70;;;;;;5043636;28;19929;-80
2022/07/25 12:05:17;;;;;;;;;;;22.20;88.70;;;;;;5027724;28;19925;-81
2022/07/25 12:07:49;;;;;;;;;;;22.70;87.70;;;;;;5047677;28;19933;-84
2022/07/25 12:10:20;;;;;;;;;;;22.40;87.40;;;;;;5045337;28;19929;-82
2022/07/25 12:12:52;;;;;;;;;;;22.60;86.90;;;;;;5046596;28;19932;-82
2022/07/25 12:15:23;;;;;;;;;;;22.20;85.90;;;;;;5044221;28;19932;-80
2022/07/25 12:17:53;;;;;;;;;;;23.60;86.40;;;;;;5045112;28;19936;-80
2022/07/25 12:20:22;;;;;;;;;;;23.00;85.30;;;;;;5029096;28;19935;-81
2022/07/25 12:22:52;;;;;;;;;;;23.10;85.50;;;;;;5044684;28;19937;-80
2022/07/25 12:25:23;;;;;;;;;;;22.90;85.80;;;;;;5046623;28;19929;-81
2022/07/25 12:27:58;;;;;;;;;;;22.90;86.80;;;;;;5043923;28;19928;-81
2022/07/25 12:30:28;;;;;;;;;;;22.50;87.40;;;;;;5057921;28;19941;-82
2022/07/25 12:32:57;;;;;;;;;;;22.60;87.30;;;;;;5044769;28;19929;-80
2022/07/25 12:35:26;;;;;;;;;;;23.00;87.80;;;;;;5028439;28;19924;-81
2022/07/25 12:37:55;;;;;;;;;;;23.00;87.70;;;;;;5042398;28;20317;-82
2022/07/25 12:40:23;;;;;;;;;;;23.00;87.70;;;;;;5045698;28;20367;-80
2022/07/25 12:42:53;;;;;;;;;;;23.00;87.40;;;;;;5043252;28;19925;-79
2022/07/25 12:45:23;;;;;;;;;;;23.00;87.20;;;;;;5026875;28;19925;-79
2022/07/25 12:47:51;;;;;;;;;;;22.90;86.90;;;;;;5009712;28;19932;-80
2022/07/25 12:50:19;;;;;;;;;;;22.90;87.50;;;;;;5042402;28;19929;-81
2022/07/25 12:52:48;;;;;;;;;;;22.90;86.40;;;;;;5043683;28;19944;-80
2022/07/25 12:55:20;;;;;;;;;;;22.90;86.00;;;;;;5045920;28;19934;-82
2022/07/25 12:57:50;;;;;;;;;;;23.00;86.00;;;;;;5044240;28;19959;-80
2022/07/25 13:00:20;;;;;;;;;;;23.10;85.60;;;;;;5059348;28;19935;-80
2022/07/25 13:02:51;;;;;;;;;;;23.70;85.40;;;;;;5041799;28;19940;-79
2022/07/25 13:05:22;;;;;;;;;;;23.50;84.20;;;;;;5041259;28;19933;-80
2022/07/25 13:07:51;;;;;;;;;;;23.60;83.60;;;;;;5044115;28;19925;-80
2022/07/25 13:10:22;;;;;;;;;;;23.60;82.60;;;;;;5042740;28;20642;-80
2022/07/25 13:12:50;;;;;;;;;;;23.60;82.40;;;;;;5047554;28;19932;-81
2022/07/25 13:15:21;;;;;;;;;;;23.20;82.50;;;;;;5028558;28;19936;-79
2022/07/25 13:17:50;;;;;;;;;;;22.90;80.90;;;;;;5046023;28;19929;-80
2022/07/25 13:20:20;;;;;;;;;;;23.60;80.40;;;;;;5035046;28;19936;-79
2022/07/25 13:22:50;;;;;;;;;;;23.80;80.00;;;;;;5027121;28;19930;-81
2022/07/25 13:25:22;;;;;;;;;;;23.50;79.70;;;;;;5042945;28;19929;-80
2022/07/25 13:27:56;;;;;;;;;;;24.30;79.20;;;;;;5042746;28;19939;-82
2022/07/25 13:30:27;;;;;;;;;;;24.50;78.00;;;;;;5043432;28;19944;-81
2022/07/25 13:32:56;;;;;;;;;;;24.30;77.50;;;;;;5044540;28;19929;-81
2022/07/25 13:35:25;;;;;;;;;;;24.50;77.60;;;;;;5043821;28;19940;-80
2022/07/25 13:38:03;;;;;;;;;;;24.80;77.70;;;;;;5043414;28;19937;-78
2022/07/25 13:40:36;;;;;;;;;;;25.00;77.80;;;;;;5044180;28;19947;-82
2022/07/25 13:43:11;;;;;;;;;;;25.40;76.80;;;;;;5059208;28;19924;-82
2022/07/25 13:45:40;;;;;;;;;;;25.60;76.00;;;;;;5046358;28;19933;-82
2022/07/25 13:48:09;;;;;;;;;;;25.90;75.90;;;;;;5046318;28;19940;-80
2022/07/25 13:50:58;;;;;;;;;;;26.10;75.30;;;;;;5042237;28;19931;-82
2022/07/25 13:53:32;;;;;;;;;;;26.10;75.70;;;;;;5042795;28;19929;-82
2022/07/25 13:56:01;;;;;;;;;;;26.10;74.40;;;;;;5042933;28;19932;-82
2022/07/25 13:58:30;;;;;;;;;;;26.20;74.00;;;;;;5044897;28;19932;-80
2022/07/25 14:00:59;;;;;;;;;;;26.10;73.20;;;;;;5041755;28;19924;-83
2022/07/25 14:03:28;;;;;;;;;;;26.40;73.00;;;;;;5046714;28;19929;-82
2022/07/25 14:05:57;;;;;;;;;;;26.80;73.60;;;;;;5044115;28;19931;-82
2022/07/25 14:08:25;;;;;;;;;;;27.30;72.10;;;;;;5024248;28;19939;-85
2022/07/25 14:10:55;;;;;;;;;;;27.50;72.10;;;;;;5041588;28;20370;-82
2022/07/25 14:13:25;;;;;;;;;;;27.40;72.10;;;;;;5025920;28;19925;-84
2022/07/25 14:15:57;;;;;;;;;;;27.50;70.00;;;;;;5024957;28;20188;-84
2022/07/25 14:18:29;;;;;;;;;;;27.00;71.20;;;;;;5044422;28;19929;-82
2022/07/25 14:20:58;;;;;;;;;;;26.50;71.50;;;;;;5044208;28;19935;-82
2022/07/25 14:23:27;;;;;;;;;;;26.50;72.20;;;;;;5058406;28;19936;-83
2022/07/25 14:25:57;;;;;;;;;;;26.10;72.50;;;;;;5026017;28;19925;-82
2022/07/25 14:28:25;;;;;;;;;;;26.00;73.50;;;;;;5037074;28;20995;-83
2022/07/25 14:30:53;;;;;;;;;;;25.70;73.50;;;;;;5026187;28;19932;-81
2022/07/25 14:33:23;;;;;;;;;;;25.50;74.50;;;;;;5041997;28;19933;-83
2022/07/25 14:35:58;;;;;;;;;;;25.60;74.90;;;;;;5042032;28;19933;-81
2022/07/25 14:38:31;;;;;;;;;;;25.20;75.20;;;;;;5056153;28;19925;-81
2022/07/25 14:41:09;;;;;;;;;;;25.20;75.60;;;;;;5044536;28;19936;-82
2022/07/25 14:43:40;;;;;;;;;;;25.30;76.10;;;;;;5044711;28;19935;-82
2022/07/25 14:46:10;;;;;;;;;;;25.20;78.10;;;;;;5045615;28;19924;-81